sensor_id;sensor_type;location;lat;lon;timestamp;P1;durP1;ratioP1;P2;durP2;ratioP2
78053;SDS011;67726;45.636;11.752;2023-04-06T00:01:02;18.80;;;10.40;;
78053;SDS011;67726;45.636;11.752;2023-04-06T00:03:28;20.50;;;11.17;;
78053;SDS011;67726;45.636;11.752;2023-04-06T00:05:53;20.52;;;12.30;;
78053;SDS011;67726;45.636;11.752;2023-04-06T00:08:19;20.90;;;12.30;;
78053;SDS011;67726;45.636;11.752;2023-04-06T00:10:46;23.92;;;12.30;;
78053;SDS011;67726;45.636;11.752;2023-04-06T00:13:12;21.42;;;12.48;;
78053;SDS011;67726;45.636;11.752;2023-04-06T00:15:37;19.73;;;12.10;;
78053;SDS011;67726;45.636;11.752;2023-04-06T00:18:03;25.38;;;13.93;;
78053;SDS011;67726;45.636;11.752;2023-04-06T00:20:29;20.90;;;12.73;;
78053;SDS011;67726;45.636;11.752;2023-04-06T00:22:55;23.15;;;13.50;;
78053;SDS011;67726;45.636;11.752;2023-04-06T00:25:20;22.80;;;12.77;;
78053;SDS011;67726;45.636;11.752;2023-04-06T00:27:46;22.75;;;13.05;;
78053;SDS011;67726;45.636;11.752;2023-04-06T00:30:12;24.23;;;13.73;;
78053;SDS011;67726;45.636;11.752;2023-04-06T00:32:37;25.42;;;14.23;;
78053;SDS011;67726;45.636;11.752;2023-04-06T00:35:03;25.90;;;14.83;;
78053;SDS011;67726;45.636;11.752;2023-04-06T00:37:29;23.88;;;14.40;;
78053;SDS011;67726;45.636;11.752;2023-04-06T00:39:55;25.83;;;14.32;;
78053;SDS011;67726;45.636;11.752;2023-04-06T00:42:21;26.03;;;14.87;;
78053;SDS011;67726;45.636;11.752;2023-04-06T00:44:54;27.60;;;14.30;;
78053;SDS011;67726;45.636;11.752;2023-04-06T00:47:21;26.45;;;13.57;;
78053;SDS011;67726;45.636;11.752;2023-04-06T00:49:48;27.00;;;14.07;;
78053;SDS011;67726;45.636;11.752;2023-04-06T00:52:15;27.00;;;14.03;;
78053;SDS011;67726;45.636;11.752;2023-04-06T00:54:41;24.98;;;14.45;;
78053;SDS011;67726;45.636;11.752;2023-04-06T00:57:06;29.67;;;15.38;;
78053;SDS011;67726;45.636;11.752;2023-04-06T00:59:32;28.07;;;15.10;;
78053;SDS011;67726;45.636;11.752;2023-04-06T01:01:58;27.25;;;15.15;;
78053;SDS011;67726;45.636;11.752;2023-04-06T01:04:24;26.90;;;16.05;;
78053;SDS011;67726;45.636;11.752;2023-04-06T01:06:50;28.63;;;15.77;;
78053;SDS011;67726;45.636;11.752;2023-04-06T01:09:19;27.10;;;15.73;;
78053;SDS011;67726;45.636;11.752;2023-04-06T01:11:44;26.48;;;15.13;;
78053;SDS011;67726;45.636;11.752;2023-04-06T01:14:10;30.50;;;17.47;;
78053;SDS011;67726;45.636;11.752;2023-04-06T01:16:36;26.58;;;15.57;;
78053;SDS011;67726;45.636;11.752;2023-04-06T01:19:08;27.57;;;16.57;;
78053;SDS011;67726;45.636;11.752;2023-04-06T01:21:36;26.20;;;16.73;;
78053;SDS011;67726;45.636;11.752;2023-04-06T01:24:02;31.02;;;16.08;;
78053;SDS011;67726;45.636;11.752;2023-04-06T01:26:28;30.42;;;16.33;;
78053;SDS011;67726;45.636;11.752;2023-04-06T01:28:54;25.27;;;15.73;;
78053;SDS011;67726;45.636;11.752;2023-04-06T01:31:20;25.57;;;14.90;;
78053;SDS011;67726;45.636;11.752;2023-04-06T01:33:46;26.75;;;15.02;;
78053;SDS011;67726;45.636;11.752;2023-04-06T01:36:12;25.52;;;14.35;;
78053;SDS011;67726;45.636;11.752;2023-04-06T01:38:38;25.58;;;14.65;;
78053;SDS011;67726;45.636;11.752;2023-04-06T01:41:04;26.50;;;14.77;;
78053;SDS011;67726;45.636;11.752;2023-04-06T01:43:30;26.77;;;15.45;;
78053;SDS011;67726;45.636;11.752;2023-04-06T01:45:56;24.30;;;15.40;;
78053;SDS011;67726;45.636;11.752;2023-04-06T01:48:21;23.63;;;13.77;;
78053;SDS011;67726;45.636;11.752;2023-04-06T01:50:47;28.93;;;14.53;;
78053;SDS011;67726;45.636;11.752;2023-04-06T01:53:12;23.40;;;13.18;;
78053;SDS011;67726;45.636;11.752;2023-04-06T01:55:39;22.47;;;13.13;;
78053;SDS011;67726;45.636;11.752;2023-04-06T01:58:05;23.92;;;12.95;;
78053;SDS011;67726;45.636;11.752;2023-04-06T02:00:30;25.53;;;13.97;;
78053;SDS011;67726;45.636;11.752;2023-04-06T02:02:56;24.55;;;12.73;;
78053;SDS011;67726;45.636;11.752;2023-04-06T02:05:22;24.20;;;13.10;;
78053;SDS011;67726;45.636;11.752;2023-04-06T02:07:47;19.17;;;11.45;;
78053;SDS011;67726;45.636;11.752;2023-04-06T02:10:14;20.27;;;12.52;;
78053;SDS011;67726;45.636;11.752;2023-04-06T02:12:40;18.47;;;11.20;;
78053;SDS011;67726;45.636;11.752;2023-04-06T02:15:06;21.55;;;12.05;;
78053;SDS011;67726;45.636;11.752;2023-04-06T02:17:32;22.23;;;11.98;;
78053;SDS011;67726;45.636;11.752;2023-04-06T02:19:58;19.90;;;11.80;;
78053;SDS011;67726;45.636;11.752;2023-04-06T02:22:23;22.83;;;11.95;;
78053;SDS011;67726;45.636;11.752;2023-04-06T02:24:49;21.93;;;12.10;;
78053;SDS011;67726;45.636;11.752;2023-04-06T02:27:15;17.48;;;10.45;;
78053;SDS011;67726;45.636;11.752;2023-04-06T02:29:41;20.97;;;11.80;;
78053;SDS011;67726;45.636;11.752;2023-04-06T02:32:06;22.05;;;11.68;;
78053;SDS011;67726;45.636;11.752;2023-04-06T02:34:32;22.73;;;12.13;;
78053;SDS011;67726;45.636;11.752;2023-04-06T02:36:58;23.10;;;12.70;;
78053;SDS011;67726;45.636;11.752;2023-04-06T02:39:23;19.50;;;11.03;;
78053;SDS011;67726;45.636;11.752;2023-04-06T02:41:49;18.75;;;11.40;;
78053;SDS011;67726;45.636;11.752;2023-04-06T02:44:15;21.63;;;11.50;;
78053;SDS011;67726;45.636;11.752;2023-04-06T02:46:40;21.30;;;12.38;;
78053;SDS011;67726;45.636;11.752;2023-04-06T02:49:06;21.33;;;12.50;;
78053;SDS011;67726;45.636;11.752;2023-04-06T02:51:32;17.87;;;11.20;;
78053;SDS011;67726;45.636;11.752;2023-04-06T02:53:58;22.10;;;11.70;;
78053;SDS011;67726;45.636;11.752;2023-04-06T02:56:24;23.92;;;11.40;;
78053;SDS011;67726;45.636;11.752;2023-04-06T02:58:51;20.93;;;10.73;;
78053;SDS011;67726;45.636;11.752;2023-04-06T03:01:17;19.30;;;11.00;;
78053;SDS011;67726;45.636;11.752;2023-04-06T03:03:42;22.27;;;11.43;;
78053;SDS011;67726;45.636;11.752;2023-04-06T03:06:08;21.02;;;10.93;;
78053;SDS011;67726;45.636;11.752;2023-04-06T03:08:34;21.48;;;10.77;;
78053;SDS011;67726;45.636;11.752;2023-04-06T03:11:00;18.93;;;10.77;;
78053;SDS011;67726;45.636;11.752;2023-04-06T03:13:25;20.25;;;10.77;;
78053;SDS011;67726;45.636;11.752;2023-04-06T03:15:51;20.77;;;10.30;;
78053;SDS011;67726;45.636;11.752;2023-04-06T03:18:20;21.00;;;10.87;;
78053;SDS011;67726;45.636;11.752;2023-04-06T03:20:47;18.90;;;10.68;;
78053;SDS011;67726;45.636;11.752;2023-04-06T03:23:12;21.60;;;10.73;;
78053;SDS011;67726;45.636;11.752;2023-04-06T03:25:38;20.47;;;10.17;;
78053;SDS011;67726;45.636;11.752;2023-04-06T03:28:07;19.58;;;10.45;;
78053;SDS011;67726;45.636;11.752;2023-04-06T03:30:33;19.83;;;9.68;;
78053;SDS011;67726;45.636;11.752;2023-04-06T03:32:59;17.10;;;9.20;;
78053;SDS011;67726;45.636;11.752;2023-04-06T03:35:25;20.77;;;10.27;;
78053;SDS011;67726;45.636;11.752;2023-04-06T03:37:50;18.93;;;9.67;;
78053;SDS011;67726;45.636;11.752;2023-04-06T03:40:16;20.40;;;9.67;;
78053;SDS011;67726;45.636;11.752;2023-04-06T03:42:42;18.00;;;10.68;;
78053;SDS011;67726;45.636;11.752;2023-04-06T03:45:08;20.80;;;9.77;;
78053;SDS011;67726;45.636;11.752;2023-04-06T03:47:34;22.00;;;10.15;;
78053;SDS011;67726;45.636;11.752;2023-04-06T03:49:59;18.03;;;9.97;;
78053;SDS011;67726;45.636;11.752;2023-04-06T03:52:25;22.70;;;11.70;;
78053;SDS011;67726;45.636;11.752;2023-04-06T03:54:51;21.60;;;10.77;;
78053;SDS011;67726;45.636;11.752;2023-04-06T03:57:17;20.35;;;10.77;;
78053;SDS011;67726;45.636;11.752;2023-04-06T03:59:43;19.90;;;10.60;;
78053;SDS011;67726;45.636;11.752;2023-04-06T04:02:08;16.13;;;9.40;;
78053;SDS011;67726;45.636;11.752;2023-04-06T04:04:34;16.73;;;10.57;;
78053;SDS011;67726;45.636;11.752;2023-04-06T04:07:00;21.67;;;11.43;;
78053;SDS011;67726;45.636;11.752;2023-04-06T04:09:25;19.73;;;10.70;;
78053;SDS011;67726;45.636;11.752;2023-04-06T04:11:51;19.95;;;11.65;;
78053;SDS011;67726;45.636;11.752;2023-04-06T04:14:17;22.20;;;11.13;;
78053;SDS011;67726;45.636;11.752;2023-04-06T04:16:42;22.83;;;11.50;;
78053;SDS011;67726;45.636;11.752;2023-04-06T04:19:08;22.08;;;11.70;;
78053;SDS011;67726;45.636;11.752;2023-04-06T04:21:41;23.80;;;11.82;;
78053;SDS011;67726;45.636;11.752;2023-04-06T04:24:08;24.50;;;12.90;;
78053;SDS011;67726;45.636;11.752;2023-04-06T04:26:34;26.25;;;12.27;;
78053;SDS011;67726;45.636;11.752;2023-04-06T04:28:59;24.60;;;12.57;;
78053;SDS011;67726;45.636;11.752;2023-04-06T04:31:26;23.38;;;13.50;;
78053;SDS011;67726;45.636;11.752;2023-04-06T04:33:52;23.88;;;12.73;;
78053;SDS011;67726;45.636;11.752;2023-04-06T04:36:17;23.77;;;13.63;;
78053;SDS011;67726;45.636;11.752;2023-04-06T04:38:43;23.13;;;12.60;;
78053;SDS011;67726;45.636;11.752;2023-04-06T04:41:09;20.55;;;12.10;;
78053;SDS011;67726;45.636;11.752;2023-04-06T04:43:34;21.33;;;12.47;;
78053;SDS011;67726;45.636;11.752;2023-04-06T04:46:00;22.48;;;12.80;;
78053;SDS011;67726;45.636;11.752;2023-04-06T04:48:26;25.37;;;15.10;;
78053;SDS011;67726;45.636;11.752;2023-04-06T04:50:51;23.92;;;13.85;;
78053;SDS011;67726;45.636;11.752;2023-04-06T04:53:17;25.83;;;13.10;;
78053;SDS011;67726;45.636;11.752;2023-04-06T04:55:43;24.40;;;12.45;;
78053;SDS011;67726;45.636;11.752;2023-04-06T04:58:08;24.70;;;12.87;;
78053;SDS011;67726;45.636;11.752;2023-04-06T05:00:36;24.73;;;12.77;;
78053;SDS011;67726;45.636;11.752;2023-04-06T05:03:02;26.90;;;14.07;;
78053;SDS011;67726;45.636;11.752;2023-04-06T05:05:29;23.23;;;13.65;;
78053;SDS011;67726;45.636;11.752;2023-04-06T05:07:56;24.33;;;13.05;;
78053;SDS011;67726;45.636;11.752;2023-04-06T05:10:21;21.88;;;13.50;;
78053;SDS011;67726;45.636;11.752;2023-04-06T05:12:47;26.57;;;12.93;;
78053;SDS011;67726;45.636;11.752;2023-04-06T05:15:13;22.30;;;12.48;;
78053;SDS011;67726;45.636;11.752;2023-04-06T05:17:39;20.93;;;13.07;;
78053;SDS011;67726;45.636;11.752;2023-04-06T05:20:05;26.67;;;14.45;;
78053;SDS011;67726;45.636;11.752;2023-04-06T05:22:31;24.90;;;14.55;;
78053;SDS011;67726;45.636;11.752;2023-04-06T05:24:56;26.70;;;15.63;;
78053;SDS011;67726;45.636;11.752;2023-04-06T05:27:22;22.42;;;12.30;;
78053;SDS011;67726;45.636;11.752;2023-04-06T05:29:48;21.20;;;11.97;;
78053;SDS011;67726;45.636;11.752;2023-04-06T05:32:14;23.58;;;11.88;;
78053;SDS011;67726;45.636;11.752;2023-04-06T05:34:40;21.80;;;11.75;;
78053;SDS011;67726;45.636;11.752;2023-04-06T05:37:05;18.23;;;11.47;;
78053;SDS011;67726;45.636;11.752;2023-04-06T05:39:31;21.85;;;12.05;;
78053;SDS011;67726;45.636;11.752;2023-04-06T05:41:57;24.20;;;13.10;;
78053;SDS011;67726;45.636;11.752;2023-04-06T05:44:22;22.70;;;11.48;;
78053;SDS011;67726;45.636;11.752;2023-04-06T05:46:48;18.70;;;11.40;;
78053;SDS011;67726;45.636;11.752;2023-04-06T05:49:14;18.47;;;11.33;;
78053;SDS011;67726;45.636;11.752;2023-04-06T05:51:39;18.97;;;11.63;;
78053;SDS011;67726;45.636;11.752;2023-04-06T05:54:05;19.80;;;11.20;;
78053;SDS011;67726;45.636;11.752;2023-04-06T05:56:31;18.97;;;11.30;;
78053;SDS011;67726;45.636;11.752;2023-04-06T05:58:56;17.10;;;10.32;;
78053;SDS011;67726;45.636;11.752;2023-04-06T06:01:22;15.30;;;10.50;;
78053;SDS011;67726;45.636;11.752;2023-04-06T06:03:48;21.03;;;10.67;;
78053;SDS011;67726;45.636;11.752;2023-04-06T06:06:14;17.43;;;9.73;;
78053;SDS011;67726;45.636;11.752;2023-04-06T06:08:40;17.33;;;10.32;;
78053;SDS011;67726;45.636;11.752;2023-04-06T06:11:05;17.93;;;10.90;;
78053;SDS011;67726;45.636;11.752;2023-04-06T06:13:31;21.17;;;10.32;;
78053;SDS011;67726;45.636;11.752;2023-04-06T06:15:57;16.77;;;10.43;;
78053;SDS011;67726;45.636;11.752;2023-04-06T06:18:23;17.00;;;10.27;;
78053;SDS011;67726;45.636;11.752;2023-04-06T06:20:48;20.60;;;10.27;;
78053;SDS011;67726;45.636;11.752;2023-04-06T06:23:14;18.77;;;10.95;;
78053;SDS011;67726;45.636;11.752;2023-04-06T06:25:40;15.88;;;9.63;;
78053;SDS011;67726;45.636;11.752;2023-04-06T06:28:06;15.47;;;9.47;;
78053;SDS011;67726;45.636;11.752;2023-04-06T06:30:31;17.73;;;10.15;;
78053;SDS011;67726;45.636;11.752;2023-04-06T06:32:57;22.13;;;9.83;;
78053;SDS011;67726;45.636;11.752;2023-04-06T06:35:23;16.45;;;9.77;;
78053;SDS011;67726;45.636;11.752;2023-04-06T06:37:49;17.10;;;10.20;;
78053;SDS011;67726;45.636;11.752;2023-04-06T06:40:14;15.68;;;8.88;;
78053;SDS011;67726;45.636;11.752;2023-04-06T06:42:42;19.00;;;10.30;;
78053;SDS011;67726;45.636;11.752;2023-04-06T06:45:08;16.90;;;10.03;;
78053;SDS011;67726;45.636;11.752;2023-04-06T06:47:34;16.38;;;9.40;;
78053;SDS011;67726;45.636;11.752;2023-04-06T06:50:00;14.15;;;8.30;;
78053;SDS011;67726;45.636;11.752;2023-04-06T06:52:27;14.67;;;7.83;;
78053;SDS011;67726;45.636;11.752;2023-04-06T06:54:53;18.30;;;7.93;;
78053;SDS011;67726;45.636;11.752;2023-04-06T06:57:19;16.88;;;7.95;;
78053;SDS011;67726;45.636;11.752;2023-04-06T06:59:45;13.53;;;7.47;;
78053;SDS011;67726;45.636;11.752;2023-04-06T07:02:11;14.65;;;7.90;;
78053;SDS011;67726;45.636;11.752;2023-04-06T07:04:36;12.17;;;6.37;;
78053;SDS011;67726;45.636;11.752;2023-04-06T07:07:02;13.07;;;6.45;;
78053;SDS011;67726;45.636;11.752;2023-04-06T07:09:28;12.63;;;6.32;;
78053;SDS011;67726;45.636;11.752;2023-04-06T07:11:54;12.87;;;6.10;;
78053;SDS011;67726;45.636;11.752;2023-04-06T07:14:21;13.13;;;6.45;;
78053;SDS011;67726;45.636;11.752;2023-04-06T07:16:47;11.80;;;6.57;;
78053;SDS011;67726;45.636;11.752;2023-04-06T07:19:13;13.02;;;6.75;;
78053;SDS011;67726;45.636;11.752;2023-04-06T07:21:39;11.35;;;6.05;;
78053;SDS011;67726;45.636;11.752;2023-04-06T07:24:05;12.27;;;6.00;;
78053;SDS011;67726;45.636;11.752;2023-04-06T07:27:07;10.87;;;5.67;;
78053;SDS011;67726;45.636;11.752;2023-04-06T07:29:33;12.32;;;6.35;;
78053;SDS011;67726;45.636;11.752;2023-04-06T07:31:58;12.93;;;6.23;;
78053;SDS011;67726;45.636;11.752;2023-04-06T07:34:24;11.90;;;6.70;;
78053;SDS011;67726;45.636;11.752;2023-04-06T07:36:50;11.35;;;5.97;;
78053;SDS011;67726;45.636;11.752;2023-04-06T07:39:17;12.20;;;5.80;;
78053;SDS011;67726;45.636;11.752;2023-04-06T07:41:43;10.70;;;5.50;;
78053;SDS011;67726;45.636;11.752;2023-04-06T07:44:09;11.10;;;5.43;;
78053;SDS011;67726;45.636;11.752;2023-04-06T07:46:34;10.43;;;5.18;;
78053;SDS011;67726;45.636;11.752;2023-04-06T07:49:01;11.55;;;5.57;;
78053;SDS011;67726;45.636;11.752;2023-04-06T07:51:27;8.38;;;4.60;;
78053;SDS011;67726;45.636;11.752;2023-04-06T07:53:53;10.87;;;5.20;;
78053;SDS011;67726;45.636;11.752;2023-04-06T07:56:18;11.00;;;5.13;;
78053;SDS011;67726;45.636;11.752;2023-04-06T07:58:45;10.35;;;5.82;;
78053;SDS011;67726;45.636;11.752;2023-04-06T08:01:11;11.33;;;5.63;;
78053;SDS011;67726;45.636;11.752;2023-04-06T08:03:37;10.15;;;5.72;;
78053;SDS011;67726;45.636;11.752;2023-04-06T08:06:03;10.70;;;6.00;;
78053;SDS011;67726;45.636;11.752;2023-04-06T08:08:30;10.50;;;5.83;;
78053;SDS011;67726;45.636;11.752;2023-04-06T08:10:55;15.85;;;5.85;;
78053;SDS011;67726;45.636;11.752;2023-04-06T08:13:21;13.48;;;6.43;;
78053;SDS011;67726;45.636;11.752;2023-04-06T08:15:47;10.80;;;5.80;;
78053;SDS011;67726;45.636;11.752;2023-04-06T08:18:13;10.93;;;5.55;;
78053;SDS011;67726;45.636;11.752;2023-04-06T08:20:39;11.30;;;5.73;;
78053;SDS011;67726;45.636;11.752;2023-04-06T08:23:05;11.60;;;5.85;;
78053;SDS011;67726;45.636;11.752;2023-04-06T08:25:31;11.48;;;5.20;;
78053;SDS011;67726;45.636;11.752;2023-04-06T08:27:59;11.02;;;5.70;;
78053;SDS011;67726;45.636;11.752;2023-04-06T08:30:24;11.53;;;5.50;;
78053;SDS011;67726;45.636;11.752;2023-04-06T08:32:50;12.77;;;5.80;;
78053;SDS011;67726;45.636;11.752;2023-04-06T08:35:16;12.00;;;5.20;;
78053;SDS011;67726;45.636;11.752;2023-04-06T08:37:41;13.30;;;5.93;;
78053;SDS011;67726;45.636;11.752;2023-04-06T08:40:07;10.27;;;5.43;;
78053;SDS011;67726;45.636;11.752;2023-04-06T08:42:35;10.75;;;5.35;;
78053;SDS011;67726;45.636;11.752;2023-04-06T08:45:09;11.75;;;5.50;;
78053;SDS011;67726;45.636;11.752;2023-04-06T08:47:35;10.98;;;5.38;;
78053;SDS011;67726;45.636;11.752;2023-04-06T08:50:04;8.77;;;5.40;;
78053;SDS011;67726;45.636;11.752;2023-04-06T08:52:31;10.90;;;5.50;;
78053;SDS011;67726;45.636;11.752;2023-04-06T08:55:00;11.55;;;6.40;;
78053;SDS011;67726;45.636;11.752;2023-04-06T08:57:26;9.45;;;5.32;;
78053;SDS011;67726;45.636;11.752;2023-04-06T08:59:52;10.43;;;5.43;;
78053;SDS011;67726;45.636;11.752;2023-04-06T09:02:19;11.05;;;5.63;;
78053;SDS011;67726;45.636;11.752;2023-04-06T09:04:45;11.63;;;5.38;;
78053;SDS011;67726;45.636;11.752;2023-04-06T09:07:13;13.13;;;5.45;;
78053;SDS011;67726;45.636;11.752;2023-04-06T09:09:40;10.93;;;4.95;;
78053;SDS011;67726;45.636;11.752;2023-04-06T09:12:21;10.27;;;5.60;;
78053;SDS011;67726;45.636;11.752;2023-04-06T09:14:54;11.52;;;5.82;;
78053;SDS011;67726;45.636;11.752;2023-04-06T09:17:27;10.15;;;6.28;;
78053;SDS011;67726;45.636;11.752;2023-04-06T09:19:53;9.38;;;5.70;;
78053;SDS011;67726;45.636;11.752;2023-04-06T09:22:20;10.32;;;6.00;;
78053;SDS011;67726;45.636;11.752;2023-04-06T09:24:46;11.23;;;6.67;;
78053;SDS011;67726;45.636;11.752;2023-04-06T09:27:14;12.23;;;6.00;;
78053;SDS011;67726;45.636;11.752;2023-04-06T09:29:41;9.75;;;5.65;;
78053;SDS011;67726;45.636;11.752;2023-04-06T09:32:07;14.67;;;6.10;;
78053;SDS011;67726;45.636;11.752;2023-04-06T09:34:39;9.13;;;6.13;;
78053;SDS011;67726;45.636;11.752;2023-04-06T09:37:15;12.27;;;6.97;;
78053;SDS011;67726;45.636;11.752;2023-04-06T09:39:43;11.18;;;6.18;;
78053;SDS011;67726;45.636;11.752;2023-04-06T09:42:11;10.50;;;6.38;;
78053;SDS011;67726;45.636;11.752;2023-04-06T09:44:48;12.33;;;6.57;;
78053;SDS011;67726;45.636;11.752;2023-04-06T09:47:14;10.55;;;6.15;;
78053;SDS011;67726;45.636;11.752;2023-04-06T09:49:41;10.80;;;6.25;;
78053;SDS011;67726;45.636;11.752;2023-04-06T09:52:10;11.10;;;5.60;;
78053;SDS011;67726;45.636;11.752;2023-04-06T09:54:37;11.85;;;6.32;;
78053;SDS011;67726;45.636;11.752;2023-04-06T10:05:25;11.63;;;7.00;;
78053;SDS011;67726;45.636;11.752;2023-04-06T10:07:53;11.55;;;6.75;;
78053;SDS011;67726;45.636;11.752;2023-04-06T10:10:21;12.67;;;8.17;;
78053;SDS011;67726;45.636;11.752;2023-04-06T10:12:47;12.25;;;7.68;;
78053;SDS011;67726;45.636;11.752;2023-04-06T10:15:14;14.43;;;7.45;;
78053;SDS011;67726;45.636;11.752;2023-04-06T10:17:40;12.80;;;7.90;;
78053;SDS011;67726;45.636;11.752;2023-04-06T10:22:36;11.47;;;7.47;;
78053;SDS011;67726;45.636;11.752;2023-04-06T10:25:15;14.48;;;7.30;;
78053;SDS011;67726;45.636;11.752;2023-04-06T10:27:41;14.05;;;7.18;;
78053;SDS011;67726;45.636;11.752;2023-04-06T10:30:07;13.37;;;7.00;;
78053;SDS011;67726;45.636;11.752;2023-04-06T10:35:08;14.13;;;7.60;;
78053;SDS011;67726;45.636;11.752;2023-04-06T10:38:01;13.43;;;7.43;;
78053;SDS011;67726;45.636;11.752;2023-04-06T10:40:28;12.67;;;7.20;;
78053;SDS011;67726;45.636;11.752;2023-04-06T10:43:06;12.68;;;7.60;;
78053;SDS011;67726;45.636;11.752;2023-04-06T10:45:33;12.55;;;7.80;;
78053;SDS011;67726;45.636;11.752;2023-04-06T10:47:59;12.07;;;6.93;;
78053;SDS011;67726;45.636;11.752;2023-04-06T10:50:25;12.80;;;7.23;;
78053;SDS011;67726;45.636;11.752;2023-04-06T10:53:00;11.32;;;7.43;;
78053;SDS011;67726;45.636;11.752;2023-04-06T10:55:27;14.25;;;7.97;;
78053;SDS011;67726;45.636;11.752;2023-04-06T10:57:53;11.88;;;8.13;;
78053;SDS011;67726;45.636;11.752;2023-04-06T11:00:19;12.70;;;7.97;;
78053;SDS011;67726;45.636;11.752;2023-04-06T11:02:45;11.27;;;7.78;;
78053;SDS011;67726;45.636;11.752;2023-04-06T11:05:12;11.98;;;8.05;;
78053;SDS011;67726;45.636;11.752;2023-04-06T11:07:39;14.00;;;8.38;;
78053;SDS011;67726;45.636;11.752;2023-04-06T11:10:05;15.60;;;7.85;;
78053;SDS011;67726;45.636;11.752;2023-04-06T11:12:34;14.47;;;8.00;;
78053;SDS011;67726;45.636;11.752;2023-04-06T11:15:01;13.20;;;7.68;;
78053;SDS011;67726;45.636;11.752;2023-04-06T11:17:39;13.90;;;8.15;;
78053;SDS011;67726;45.636;11.752;2023-04-06T11:20:09;14.32;;;8.88;;
78053;SDS011;67726;45.636;11.752;2023-04-06T11:22:36;13.55;;;8.23;;
78053;SDS011;67726;45.636;11.752;2023-04-06T11:25:12;14.40;;;8.13;;
78053;SDS011;67726;45.636;11.752;2023-04-06T11:27:38;14.40;;;9.07;;
78053;SDS011;67726;45.636;11.752;2023-04-06T11:30:31;15.30;;;8.95;;
78053;SDS011;67726;45.636;11.752;2023-04-06T11:33:03;15.40;;;9.07;;
78053;SDS011;67726;45.636;11.752;2023-04-06T11:35:47;15.20;;;9.07;;
78053;SDS011;67726;45.636;11.752;2023-04-06T11:38:13;14.82;;;8.98;;
78053;SDS011;67726;45.636;11.752;2023-04-06T11:40:39;15.60;;;9.13;;
78053;SDS011;67726;45.636;11.752;2023-04-06T11:43:05;16.73;;;9.70;;
78053;SDS011;67726;45.636;11.752;2023-04-06T11:45:41;14.15;;;8.90;;
78053;SDS011;67726;45.636;11.752;2023-04-06T11:48:19;13.35;;;9.15;;
78053;SDS011;67726;45.636;11.752;2023-04-06T11:50:54;16.02;;;8.88;;
78053;SDS011;67726;45.636;11.752;2023-04-06T11:53:32;14.27;;;9.02;;
78053;SDS011;67726;45.636;11.752;2023-04-06T11:56:08;13.07;;;9.20;;
78053;SDS011;67726;45.636;11.752;2023-04-06T11:58:34;13.60;;;9.45;;
78053;SDS011;67726;45.636;11.752;2023-04-06T12:01:03;15.20;;;9.45;;
78053;SDS011;67726;45.636;11.752;2023-04-06T12:03:29;15.93;;;9.60;;
78053;SDS011;67726;45.636;11.752;2023-04-06T12:05:55;15.00;;;9.85;;
78053;SDS011;67726;45.636;11.752;2023-04-06T12:08:21;15.30;;;10.27;;
78053;SDS011;67726;45.636;11.752;2023-04-06T12:10:50;14.80;;;9.57;;
78053;SDS011;67726;45.636;11.752;2023-04-06T12:13:16;14.20;;;9.43;;
78053;SDS011;67726;45.636;11.752;2023-04-06T12:15:41;13.60;;;8.90;;
78053;SDS011;67726;45.636;11.752;2023-04-06T12:18:07;17.05;;;9.85;;
78053;SDS011;67726;45.636;11.752;2023-04-06T12:20:34;16.08;;;9.70;;
78053;SDS011;67726;45.636;11.752;2023-04-06T12:22:59;17.03;;;10.70;;
78053;SDS011;67726;45.636;11.752;2023-04-06T12:25:25;16.98;;;9.65;;
78053;SDS011;67726;45.636;11.752;2023-04-06T12:27:51;16.83;;;10.77;;
78053;SDS011;67726;45.636;11.752;2023-04-06T12:30:16;16.02;;;9.73;;
78053;SDS011;67726;45.636;11.752;2023-04-06T12:32:42;15.35;;;10.80;;
78053;SDS011;67726;45.636;11.752;2023-04-06T12:35:08;15.70;;;10.43;;
78053;SDS011;67726;45.636;11.752;2023-04-06T12:37:34;16.75;;;10.32;;
78053;SDS011;67726;45.636;11.752;2023-04-06T12:40:00;16.70;;;10.67;;
78053;SDS011;67726;45.636;11.752;2023-04-06T12:42:28;17.70;;;10.52;;
78053;SDS011;67726;45.636;11.752;2023-04-06T12:44:53;20.63;;;10.23;;
78053;SDS011;67726;45.636;11.752;2023-04-06T12:47:19;17.17;;;10.20;;
78053;SDS011;67726;45.636;11.752;2023-04-06T12:49:45;17.75;;;10.48;;
78053;SDS011;67726;45.636;11.752;2023-04-06T12:52:11;14.93;;;9.82;;
78053;SDS011;67726;45.636;11.752;2023-04-06T12:54:37;16.97;;;10.57;;
78053;SDS011;67726;45.636;11.752;2023-04-06T12:57:03;17.08;;;10.50;;
78053;SDS011;67726;45.636;11.752;2023-04-06T12:59:28;18.00;;;10.00;;
78053;SDS011;67726;45.636;11.752;2023-04-06T13:01:59;14.95;;;9.93;;
78053;SDS011;67726;45.636;11.752;2023-04-06T13:04:25;17.13;;;10.27;;
78053;SDS011;67726;45.636;11.752;2023-04-06T13:06:53;18.25;;;10.43;;
78053;SDS011;67726;45.636;11.752;2023-04-06T13:09:19;13.93;;;9.75;;
78053;SDS011;67726;45.636;11.752;2023-04-06T13:11:45;16.63;;;10.00;;
78053;SDS011;67726;45.636;11.752;2023-04-06T13:14:11;18.73;;;10.82;;
78053;SDS011;67726;45.636;11.752;2023-04-06T13:16:36;15.00;;;10.10;;
78053;SDS011;67726;45.636;11.752;2023-04-06T13:19:02;15.50;;;10.27;;
78053;SDS011;67726;45.636;11.752;2023-04-06T13:21:28;16.02;;;10.43;;
78053;SDS011;67726;45.636;11.752;2023-04-06T13:23:53;17.10;;;10.40;;
78053;SDS011;67726;45.636;11.752;2023-04-06T13:26:19;18.00;;;11.35;;
78053;SDS011;67726;45.636;11.752;2023-04-06T13:28:46;17.67;;;11.32;;
78053;SDS011;67726;45.636;11.752;2023-04-06T13:31:12;16.93;;;10.37;;
78053;SDS011;67726;45.636;11.752;2023-04-06T13:33:37;19.48;;;10.90;;
78053;SDS011;67726;45.636;11.752;2023-04-06T13:36:05;16.65;;;11.40;;
78053;SDS011;67726;45.636;11.752;2023-04-06T13:38:31;17.80;;;11.07;;
78053;SDS011;67726;45.636;11.752;2023-04-06T13:40:59;16.97;;;11.07;;
78053;SDS011;67726;45.636;11.752;2023-04-06T13:43:24;18.67;;;11.25;;
78053;SDS011;67726;45.636;11.752;2023-04-06T13:45:55;18.40;;;11.65;;
78053;SDS011;67726;45.636;11.752;2023-04-06T13:48:23;18.17;;;11.35;;
78053;SDS011;67726;45.636;11.752;2023-04-06T13:50:49;17.67;;;11.53;;
78053;SDS011;67726;45.636;11.752;2023-04-06T13:53:15;17.60;;;11.85;;
78053;SDS011;67726;45.636;11.752;2023-04-06T13:55:41;16.30;;;11.00;;
78053;SDS011;67726;45.636;11.752;2023-04-06T13:58:06;17.02;;;10.88;;
78053;SDS011;67726;45.636;11.752;2023-04-06T14:00:32;21.70;;;12.07;;
78053;SDS011;67726;45.636;11.752;2023-04-06T14:02:58;16.53;;;10.90;;
78053;SDS011;67726;45.636;11.752;2023-04-06T14:05:23;17.42;;;11.02;;
78053;SDS011;67726;45.636;11.752;2023-04-06T14:07:50;18.48;;;10.32;;
78053;SDS011;67726;45.636;11.752;2023-04-06T14:10:15;18.97;;;11.57;;
78053;SDS011;67726;45.636;11.752;2023-04-06T14:12:41;19.85;;;11.60;;
78053;SDS011;67726;45.636;11.752;2023-04-06T14:15:10;18.40;;;12.23;;
78053;SDS011;67726;45.636;11.752;2023-04-06T14:17:36;20.13;;;11.73;;
78053;SDS011;67726;45.636;11.752;2023-04-06T14:20:03;20.57;;;13.10;;
78053;SDS011;67726;45.636;11.752;2023-04-06T14:22:31;20.67;;;11.52;;
78053;SDS011;67726;45.636;11.752;2023-04-06T14:24:57;18.30;;;12.20;;